Time;durP1;ratioP1;P1;durP2;ratioP2;P2;SDS_P1;SDS_P2;PMS_P1;PMS_P2;Temp;Humidity;BMP_temperature;BMP_pressure;BME280_temperature;BME280_humidity;BME280_pressure;Samples;Min_cycle;Max_cycle;Signal;HPM_P1;HPM_P2
2022/04/24 00:01:33;;;;;;;6.63;3.67;;;8.40;99.90;;;;;;5074874;28;20126;-73
2022/04/24 00:04:00;;;;;;;3.67;3.35;;;8.30;99.90;;;;;;5072698;28;20044;-74
2022/04/24 00:06:27;;;;;;;6.05;3.85;;;8.40;99.90;;;;;;5072625;28;20045;-72
2022/04/24 00:08:54;;;;;;;7.28;3.85;;;8.30;99.90;;;;;;5072127;28;20041;-73
2022/04/24 00:11:20;;;;;;;5.47;4.15;;;8.30;99.90;;;;;;5054777;28;20049;-73
2022/04/24 00:13:47;;;;;;;4.65;3.78;;;8.30;99.90;;;;;;5073138;28;20059;-72
2022/04/24 00:16:14;;;;;;;5.13;3.97;;;8.20;99.90;;;;;;5058222;28;20553;-72
2022/04/24 00:18:42;;;;;;;6.45;4.10;;;8.20;99.90;;;;;;5054181;28;20076;-74
2022/04/24 00:21:08;;;;;;;3.58;3.20;;;8.10;99.90;;;;;;5054013;28;20057;-73
2022/04/24 00:23:35;;;;;;;4.60;3.75;;;8.00;99.90;;;;;;5054913;28;20071;-73
2022/04/24 00:26:02;;;;;;;5.40;4.22;;;8.00;99.90;;;;;;5054639;28;20045;-72
2022/04/24 00:28:29;;;;;;;5.07;4.03;;;7.90;99.90;;;;;;5054078;28;20445;-74
2022/04/24 00:30:56;;;;;;;5.68;3.58;;;7.70;99.90;;;;;;5053994;28;20104;-73
2022/04/24 00:33:23;;;;;;;7.65;4.10;;;7.70;99.90;;;;;;5067753;28;20507;-75
2022/04/24 00:35:52;;;;;;;7.73;4.27;;;7.70;99.90;;;;;;5073788;28;20453;-74
2022/04/24 00:38:20;;;;;;;5.78;3.67;;;7.60;99.90;;;;;;5071533;28;20399;-73
2022/04/24 00:40:47;;;;;;;4.75;4.30;;;7.50;99.90;;;;;;5073678;28;20098;-73
2022/04/24 00:43:14;;;;;;;5.30;3.67;;;7.40;99.90;;;;;;5059048;28;20469;-74
2022/04/24 00:45:40;;;;;;;4.75;4.00;;;7.20;99.90;;;;;;5053875;28;20045;-74
2022/04/24 00:48:07;;;;;;;4.77;4.13;;;7.10;99.90;;;;;;5054633;28;20049;-72
2022/04/24 00:50:34;;;;;;;4.90;3.47;;;7.10;99.90;;;;;;5053702;28;20045;-74
2022/04/24 00:53:02;;;;;;;5.50;4.00;;;7.10;99.90;;;;;;5053558;28;20053;-74
2022/04/24 00:55:30;;;;;;;5.13;3.97;;;7.10;99.90;;;;;;5054672;28;20444;-74
2022/04/24 00:57:57;;;;;;;4.50;4.07;;;7.00;99.90;;;;;;5054591;28;20045;-73
2022/04/24 01:00:23;;;;;;;4.13;3.60;;;6.90;99.90;;;;;;5053587;28;20049;-72
2022/04/24 01:02:52;;;;;;;5.60;4.70;;;6.80;99.90;;;;;;5053584;28;20053;-73
2022/04/24 01:05:18;;;;;;;6.47;4.00;;;6.90;99.90;;;;;;5054353;28;20372;-73
2022/04/24 01:07:45;;;;;;;5.07;4.47;;;6.90;99.90;;;;;;5070332;28;20045;-73
2022/04/24 01:10:13;;;;;;;7.00;4.10;;;6.90;99.90;;;;;;5052833;28;20045;-73
2022/04/24 01:12:40;;;;;;;8.43;4.83;;;6.90;99.90;;;;;;5052707;28;20099;-73
2022/04/24 01:15:07;;;;;;;4.73;4.00;;;6.90;99.90;;;;;;5052538;28;20045;-73
2022/04/24 01:17:34;;;;;;;6.27;4.20;;;6.90;99.90;;;;;;5052850;28;20045;-73
2022/04/24 01:20:01;;;;;;;5.33;3.93;;;6.90;99.90;;;;;;5052820;28;20052;-73
2022/04/24 01:22:29;;;;;;;6.33;4.17;;;6.90;99.90;;;;;;5052867;28;20049;-74
2022/04/24 01:24:55;;;;;;;10.67;4.33;;;6.90;99.90;;;;;;5053131;28;20438;-73
2022/04/24 01:27:22;;;;;;;4.70;4.23;;;6.90;99.90;;;;;;5057218;28;20155;-73
2022/04/24 01:29:49;;;;;;;5.80;4.87;;;6.90;99.90;;;;;;5056932;28;20437;-72
2022/04/24 01:32:15;;;;;;;6.30;4.10;;;6.90;99.90;;;;;;5057187;28;20045;-73
2022/04/24 01:34:42;;;;;;;7.13;4.80;;;6.90;99.90;;;;;;5057158;28;20450;-73
2022/04/24 01:37:09;;;;;;;4.77;3.87;;;6.80;99.90;;;;;;5056718;28;20052;-73
2022/04/24 01:39:36;;;;;;;5.07;4.13;;;6.70;99.90;;;;;;5056317;28;20045;-73
2022/04/24 01:42:03;;;;;;;6.07;4.00;;;6.70;99.90;;;;;;5056241;28;20499;-72
2022/04/24 01:44:30;;;;;;;6.40;4.37;;;6.60;99.90;;;;;;5056361;28;20041;-73
2022/04/24 01:46:57;;;;;;;7.67;4.07;;;6.50;99.90;;;;;;5056372;28;20041;-73
2022/04/24 01:49:23;;;;;;;5.30;3.77;;;6.60;99.90;;;;;;5057074;28;20049;-73
2022/04/24 01:51:50;;;;;;;6.37;3.83;;;6.60;99.90;;;;;;5056503;28;20045;-73
2022/04/24 01:54:17;;;;;;;5.33;3.93;;;6.50;99.90;;;;;;5056938;28;20103;-73
2022/04/24 01:56:45;;;;;;;4.77;3.50;;;6.40;99.90;;;;;;5056543;28;20115;-73
2022/04/24 01:59:11;;;;;;;4.47;3.87;;;6.40;99.90;;;;;;5056497;28;20052;-73
2022/04/24 02:01:38;;;;;;;4.50;3.47;;;6.60;99.90;;;;;;5056370;28;20110;-73
2022/04/24 02:04:05;;;;;;;7.30;3.83;;;6.70;99.90;;;;;;5071791;28;20048;-73
2022/04/24 02:06:31;;;;;;;9.30;5.87;;;6.70;99.90;;;;;;5075703;28;20049;-73
2022/04/24 02:08:58;;;;;;;11.60;7.97;;;6.70;99.90;;;;;;5055862;28;20057;-74
2022/04/24 02:11:25;;;;;;;14.23;7.57;;;6.80;99.90;;;;;;5056318;28;20053;-73
2022/04/24 02:13:52;;;;;;;13.93;8.27;;;6.80;99.90;;;;;;5056320;28;20045;-73
2022/04/24 02:16:19;;;;;;;8.90;6.23;;;6.80;99.90;;;;;;5055741;28;20040;-74
2022/04/24 02:18:46;;;;;;;7.20;5.20;;;6.80;99.90;;;;;;5056154;28;20048;-73
2022/04/24 02:21:13;;;;;;;4.47;4.03;;;6.70;99.90;;;;;;5056175;28;20494;-74
2022/04/24 02:23:40;;;;;;;7.10;4.40;;;6.70;99.90;;;;;;5055795;28;20475;-74
2022/04/24 02:26:07;;;;;;;5.43;4.30;;;6.70;99.90;;;;;;5056095;28;20049;-73
2022/04/24 02:28:33;;;;;;;5.27;4.13;;;6.70;99.90;;;;;;5055830;28;20045;-74
2022/04/24 02:31:01;;;;;;;9.37;4.13;;;6.70;99.90;;;;;;5056550;28;20107;-74
2022/04/24 02:33:28;;;;;;;6.17;4.67;;;6.70;99.90;;;;;;5056013;28;20049;-73
2022/04/24 02:35:54;;;;;;;7.90;5.43;;;6.60;99.90;;;;;;5055868;28;20053;-73
2022/04/24 02:38:22;;;;;;;5.20;4.50;;;6.60;99.90;;;;;;5055321;28;20052;-73
2022/04/24 02:40:48;;;;;;;5.53;4.13;;;6.60;99.90;;;;;;5055253;28;20055;-73
2022/04/24 02:43:15;;;;;;;5.30;4.50;;;6.60;99.90;;;;;;5055198;28;20083;-73
2022/04/24 02:45:42;;;;;;;4.30;3.90;;;6.50;99.90;;;;;;5055341;28;20045;-73
2022/04/24 02:48:10;;;;;;;5.73;4.07;;;6.50;99.90;;;;;;5055373;28;20049;-73
2022/04/24 02:50:39;;;;;;;5.50;3.50;;;6.50;99.90;;;;;;5055209;28;20047;-73
2022/04/24 02:53:06;;;;;;;7.87;4.37;;;6.50;99.90;;;;;;5055564;28;20537;-73
2022/04/24 02:55:33;;;;;;;5.73;3.67;;;6.50;99.90;;;;;;5056606;28;20049;-74
2022/04/24 02:58:01;;;;;;;4.93;3.70;;;6.40;99.90;;;;;;5055561;28;20453;-73
2022/04/24 03:00:39;;;;;;;4.67;4.13;;;6.40;99.90;;;;;;5056741;28;20045;-74
2022/04/24 03:03:07;;;;;;;5.33;4.37;;;6.40;99.90;;;;;;5059761;28;20045;-73
2022/04/24 03:05:36;;;;;;;4.97;4.20;;;6.30;99.90;;;;;;5075196;28;20054;-73
2022/04/24 03:08:02;;;;;;;8.10;4.53;;;6.30;99.90;;;;;;5075577;28;20052;-73
2022/04/24 03:10:29;;;;;;;5.83;4.40;;;6.20;99.90;;;;;;5074813;28;20496;-73
2022/04/24 03:12:56;;;;;;;5.27;3.67;;;6.20;99.90;;;;;;5073712;28;20118;-73
2022/04/24 03:15:23;;;;;;;4.60;4.13;;;6.30;99.90;;;;;;5073192;28;20048;-73
2022/04/24 03:17:50;;;;;;;6.63;4.37;;;6.20;99.90;;;;;;5055045;28;20462;-74
2022/04/24 03:20:18;;;;;;;7.50;5.73;;;6.20;99.90;;;;;;5055398;28;20049;-72
2022/04/24 03:22:46;;;;;;;4.27;3.87;;;6.20;99.90;;;;;;5055890;28;20133;-73
2022/04/24 03:25:12;;;;;;;9.97;6.20;;;6.10;99.90;;;;;;5055180;28;20103;-73
2022/04/24 03:27:39;;;;;;;8.63;4.70;;;6.10;99.90;;;;;;5056138;28;20052;-73
2022/04/24 03:30:08;;;;;;;5.90;4.13;;;6.10;99.90;;;;;;5055187;28;20102;-73
2022/04/24 03:32:35;;;;;;;6.77;5.10;;;6.10;99.90;;;;;;5069670;28;20049;-73
2022/04/24 03:35:03;;;;;;;5.47;4.53;;;6.10;99.90;;;;;;5075085;28;20049;-73
2022/04/24 03:37:30;;;;;;;5.47;4.50;;;6.10;99.90;;;;;;5072786;28;20045;-73
2022/04/24 03:39:59;;;;;;;6.80;4.27;;;6.00;99.90;;;;;;5074487;28;20231;-72
2022/04/24 03:42:26;;;;;;;7.27;5.17;;;6.00;99.90;;;;;;5073008;28;20059;-73
2022/04/24 03:44:54;;;;;;;5.17;4.17;;;6.00;99.90;;;;;;5074161;28;20045;-73
2022/04/24 03:47:21;;;;;;;6.83;4.67;;;6.00;99.90;;;;;;5072622;28;20041;-73
2022/04/24 03:49:47;;;;;;;5.87;5.13;;;5.90;99.90;;;;;;5072997;28;20372;-73
2022/04/24 03:52:14;;;;;;;7.07;5.63;;;6.00;99.90;;;;;;5074561;28;20536;-72
2022/04/24 03:54:40;;;;;;;7.03;5.93;;;6.00;99.90;;;;;;5072376;28;20090;-73
2022/04/24 03:57:12;;;;;;;9.97;4.67;;;5.90;99.90;;;;;;5064262;28;20052;-74
2022/04/24 03:59:39;;;;;;;11.27;5.53;;;5.90;99.90;;;;;;5062764;28;20048;-74
2022/04/24 04:02:06;;;;;;;7.80;5.20;;;5.90;99.90;;;;;;5074090;28;20094;-73
2022/04/24 04:04:33;;;;;;;7.53;4.57;;;5.90;99.90;;;;;;5072765;28;20045;-72
2022/04/24 04:06:59;;;;;;;8.33;4.90;;;5.90;99.90;;;;;;5074358;28;20110;-73
2022/04/24 04:09:28;;;;;;;7.93;5.47;;;5.80;99.90;;;;;;5071575;28;20564;-73
2022/04/24 04:11:55;;;;;;;7.20;5.47;;;5.90;99.90;;;;;;5074360;28;20052;-73
2022/04/24 04:14:23;;;;;;;8.90;5.30;;;5.90;99.90;;;;;;5072335;28;20486;-72
2022/04/24 04:16:50;;;;;;;6.37;5.77;;;5.90;99.90;;;;;;5074480;28;20041;-73
2022/04/24 04:19:17;;;;;;;7.63;5.13;;;5.90;99.90;;;;;;5072450;28;20048;-73
2022/04/24 04:21:44;;;;;;;8.33;5.63;;;5.90;99.90;;;;;;5073832;28;20048;-73
2022/04/24 04:24:11;;;;;;;9.87;6.20;;;5.90;99.90;;;;;;5074018;28;20139;-73
2022/04/24 04:26:40;;;;;;;8.40;5.83;;;5.90;99.90;;;;;;5071756;28;20041;-73
2022/04/24 04:29:06;;;;;;;7.83;5.83;;;5.90;99.90;;;;;;5054995;28;20048;-73
2022/04/24 04:31:34;;;;;;;7.20;6.37;;;6.00;99.90;;;;;;5053766;28;20053;-73
2022/04/24 04:34:01;;;;;;;10.17;5.43;;;6.00;99.90;;;;;;5053574;28;20049;-74
2022/04/24 04:36:28;;;;;;;7.33;5.43;;;5.90;99.90;;;;;;5054932;28;20053;-74
2022/04/24 04:38:54;;;;;;;7.33;5.33;;;6.10;99.90;;;;;;5053852;28;20048;-74
2022/04/24 04:41:21;;;;;;;8.97;5.40;;;6.10;99.90;;;;;;5054866;28;20045;-73
2022/04/24 04:43:47;;;;;;;9.83;6.10;;;6.20;99.90;;;;;;5054800;28;20087;-73
2022/04/24 04:46:14;;;;;;;9.23;5.53;;;6.20;99.90;;;;;;5054753;28;20053;-73
2022/04/24 04:48:42;;;;;;;6.73;5.07;;;6.30;99.90;;;;;;5053693;28;20491;-74
2022/04/24 04:51:09;;;;;;;7.33;5.07;;;6.30;99.90;;;;;;5054749;28;20131;-73
2022/04/24 04:53:36;;;;;;;8.00;5.37;;;6.40;99.90;;;;;;5053715;28;20045;-73
2022/04/24 04:56:03;;;;;;;9.47;5.27;;;6.40;99.90;;;;;;5064934;28;20053;-73
2022/04/24 04:58:30;;;;;;;8.87;5.63;;;6.50;99.90;;;;;;5071922;28;20048;-74
2022/04/24 05:00:59;;;;;;;8.17;5.73;;;6.50;99.90;;;;;;5071469;28;20048;-74
2022/04/24 05:03:26;;;;;;;9.70;5.93;;;6.60;99.90;;;;;;5068294;28;20044;-72
2022/04/24 05:05:53;;;;;;;6.70;5.43;;;6.70;99.90;;;;;;5053491;28;20103;-74
2022/04/24 05:08:20;;;;;;;8.17;5.70;;;6.70;99.90;;;;;;5053169;28;20482;-73
2022/04/24 05:10:47;;;;;;;12.10;5.30;;;6.80;99.90;;;;;;5051743;28;20056;-73
2022/04/24 05:13:14;;;;;;;7.20;5.77;;;6.90;99.90;;;;;;5055336;28;20044;-73
2022/04/24 05:15:40;;;;;;;7.07;5.73;;;7.00;99.90;;;;;;5071380;28;20048;-74
2022/04/24 05:18:07;;;;;;;10.60;6.77;;;7.00;99.90;;;;;;5073067;28;20053;-73
2022/04/24 05:20:34;;;;;;;11.17;6.20;;;7.10;99.90;;;;;;5057103;28;20049;-74
2022/04/24 05:23:06;;;;;;;6.93;5.47;;;7.10;99.90;;;;;;5056821;28;20088;-72
2022/04/24 05:25:33;;;;;;;8.75;5.90;;;7.10;99.90;;;;;;5071114;28;20490;-73
2022/04/24 05:28:01;;;;;;;8.10;5.10;;;7.20;99.90;;;;;;5073194;28;20083;-73
2022/04/24 05:30:28;;;;;;;8.30;5.57;;;7.20;99.90;;;;;;5070204;28;20045;-73
2022/04/24 05:32:55;;;;;;;7.50;5.17;;;7.20;99.90;;;;;;5070562;28;20052;-74
2022/04/24 05:35:22;;;;;;;8.77;5.50;;;7.30;99.90;;;;;;5071333;28;20052;-73
2022/04/24 05:37:49;;;;;;;8.05;5.32;;;7.30;99.90;;;;;;5058568;28;20106;-75
2022/04/24 05:40:17;;;;;;;7.88;6.22;;;7.30;99.90;;;;;;5076439;28;20048;-75
2022/04/24 05:42:53;;;;;;;6.63;5.57;;;7.40;99.90;;;;;;5063942;28;20049;-74
2022/04/24 05:45:22;;;;;;;11.60;5.60;;;7.50;99.90;;;;;;5053181;28;20415;-73
2022/04/24 05:47:49;;;;;;;7.72;5.53;;;7.60;99.90;;;;;;5053168;28;20063;-73
2022/04/24 05:50:16;;;;;;;7.07;5.05;;;7.60;99.90;;;;;;5058266;28;20087;-76
2022/04/24 05:52:43;;;;;;;8.18;5.90;;;7.80;99.90;;;;;;5055833;28;20537;-73
2022/04/24 05:55:10;;;;;;;8.10;5.90;;;7.90;99.90;;;;;;5052975;28;20053;-74
2022/04/24 05:57:38;;;;;;;10.63;6.38;;;8.00;99.90;;;;;;5053423;28;20114;-73
2022/04/24 06:00:06;;;;;;;6.72;5.47;;;8.40;99.90;;;;;;5054414;28;20552;-75
2022/04/24 06:02:33;;;;;;;8.90;5.47;;;8.70;99.90;;;;;;5070481;28;20045;-74
2022/04/24 06:05:00;;;;;;;11.05;6.15;;;9.10;99.90;;;;;;5065957;28;20045;-73
2022/04/24 06:07:27;;;;;;;8.00;5.32;;;9.50;99.90;;;;;;5072816;28;20469;-73
2022/04/24 06:09:54;;;;;;;7.70;5.75;;;9.80;99.90;;;;;;5061318;28;20045;-73
2022/04/24 06:12:20;;;;;;;7.38;6.03;;;10.00;99.90;;;;;;5058447;28;20053;-73
2022/04/24 06:14:48;;;;;;;7.03;5.53;;;10.20;99.90;;;;;;5056567;28;20068;-73
2022/04/24 06:17:15;;;;;;;6.57;5.97;;;10.50;99.90;;;;;;5056330;28;20056;-74
2022/04/24 06:19:42;;;;;;;11.95;5.95;;;10.70;99.90;;;;;;5061336;28;20052;-76
2022/04/24 06:22:08;;;;;;;7.45;5.60;;;11.00;99.90;;;;;;5061740;28;20052;-76
2022/04/24 06:24:35;;;;;;;8.07;6.15;;;11.30;99.90;;;;;;5076368;28;20049;-76
2022/04/24 06:27:02;;;;;;;6.55;5.85;;;11.50;99.90;;;;;;5075965;28;20044;-74
2022/04/24 06:29:29;;;;;;;7.03;5.63;;;11.70;99.90;;;;;;5075836;28;20055;-76
2022/04/24 06:31:56;;;;;;;6.80;6.03;;;12.00;99.90;;;;;;5075411;28;20048;-72
2022/04/24 06:34:23;;;;;;;6.30;5.70;;;12.40;99.90;;;;;;5055919;28;20114;-73
2022/04/24 06:36:50;;;;;;;8.90;5.82;;;12.90;99.90;;;;;;5056114;28;20095;-73
2022/04/24 06:39:16;;;;;;;7.03;5.95;;;13.30;99.90;;;;;;5055798;28;20044;-73
2022/04/24 06:41:43;;;;;;;10.20;6.50;;;13.60;99.90;;;;;;5056064;28;20091;-73
2022/04/24 06:44:10;;;;;;;10.52;5.78;;;13.70;98.40;;;;;;5055534;28;20045;-73
2022/04/24 06:46:36;;;;;;;7.68;5.65;;;13.80;97.50;;;;;;5055629;28;20045;-74
2022/04/24 06:49:04;;;;;;;7.00;5.43;;;14.10;97.00;;;;;;5055592;28;20102;-73
2022/04/24 06:51:31;;;;;;;8.82;5.45;;;14.10;95.90;;;;;;5055129;28;20136;-72
2022/04/24 06:53:58;;;;;;;7.60;5.75;;;14.00;95.60;;;;;;5055081;28;20045;-73
2022/04/24 06:56:27;;;;;;;8.57;5.72;;;13.90;95.30;;;;;;5055422;28;20102;-72
2022/04/24 06:58:54;;;;;;;7.18;6.03;;;14.00;95.40;;;;;;5055473;28;20041;-71
2022/04/24 07:01:22;;;;;;;6.57;5.78;;;14.30;94.90;;;;;;5055182;28;20510;-72
2022/04/24 07:03:49;;;;;;;8.02;5.55;;;14.60;94.10;;;;;;5054683;28;20053;-73
2022/04/24 07:06:17;;;;;;;9.02;6.82;;;14.80;93.30;;;;;;5055277;28;20094;-73
2022/04/24 07:08:44;;;;;;;7.65;5.97;;;14.80;92.50;;;;;;5055327;28;20053;-72
2022/04/24 07:11:11;;;;;;;10.18;6.00;;;14.70;91.80;;;;;;5054159;28;20094;-76
2022/04/24 07:13:41;;;;;;;6.93;6.22;;;14.80;92.80;;;;;;5055160;28;20195;-75
2022/04/24 07:16:07;;;;;;;7.22;6.53;;;15.10;92.30;;;;;;5054607;28;20502;-73
2022/04/24 07:18:35;;;;;;;5.95;5.15;;;15.60;92.70;;;;;;5055211;28;20056;-74
2022/04/24 07:21:02;;;;;;;8.88;5.57;;;15.60;90.00;;;;;;5061600;28;20040;-73
2022/04/24 07:23:31;;;;;;;7.40;4.85;;;15.90;89.10;;;;;;5074540;28;20124;-75
2022/04/24 07:25:58;;;;;;;6.53;5.20;;;15.80;87.00;;;;;;5073151;28;20044;-74
2022/04/24 07:28:26;;;;;;;8.90;6.35;;;16.00;87.40;;;;;;5074874;28;20572;-74
2022/04/24 07:30:52;;;;;;;7.28;6.03;;;16.20;84.60;;;;;;5074714;28;20071;-73
2022/04/24 07:33:19;;;;;;;7.35;5.30;;;16.20;83.80;;;;;;5065945;28;20048;-74
2022/04/24 07:35:46;;;;;;;8.93;5.38;;;16.60;83.00;;;;;;5054886;28;20049;-72
2022/04/24 07:38:12;;;;;;;8.20;5.97;;;16.90;81.20;;;;;;5054967;28;20106;-72
2022/04/24 07:40:41;;;;;;;6.00;4.53;;;17.30;78.40;;;;;;5054766;28;20090;-73
2022/04/24 07:43:09;;;;;;;6.85;5.07;;;17.60;77.30;;;;;;5055066;28;20132;-73
2022/04/24 07:45:37;;;;;;;6.38;4.57;;;17.90;76.00;;;;;;5054711;28;20124;-72
2022/04/24 07:48:05;;;;;;;6.07;4.75;;;18.20;75.10;;;;;;5054678;28;20079;-73
2022/04/24 07:50:37;;;;;;;9.93;5.55;;;18.50;73.10;;;;;;5054796;28;20098;-73
2022/04/24 07:53:05;;;;;;;5.70;4.85;;;19.00;72.70;;;;;;5054836;28;20209;-73
2022/04/24 07:55:32;;;;;;;7.28;5.38;;;19.30;70.70;;;;;;5054176;28;20540;-73
2022/04/24 07:58:00;;;;;;;8.38;5.13;;;19.60;68.70;;;;;;5054590;28;20057;-73
2022/04/24 08:00:28;;;;;;;5.75;4.65;;;19.30;66.20;;;;;;5054392;28;20461;-72
2022/04/24 08:02:57;;;;;;;6.72;5.22;;;19.00;66.80;;;;;;5054377;28;20106;-73
2022/04/24 08:05:25;;;;;;;5.43;4.80;;;18.90;68.00;;;;;;5054482;28;20067;-72
2022/04/24 08:07:52;;;;;;;6.53;4.25;;;19.20;67.60;;;;;;5054282;28;20053;-73
2022/04/24 08:10:20;;;;;;;4.50;4.10;;;19.50;66.20;;;;;;5053790;28;20044;-73
2022/04/24 08:12:47;;;;;;;4.57;4.13;;;19.80;65.40;;;;;;5054220;28;20453;-74
2022/04/24 08:15:16;;;;;;;7.53;4.50;;;19.70;63.30;;;;;;5054163;28;20065;-74
2022/04/24 08:17:43;;;;;;;5.85;5.03;;;19.70;63.00;;;;;;5054185;28;20064;-72
2022/04/24 08:20:12;;;;;;;8.82;4.65;;;20.00;64.20;;;;;;5053897;28;20544;-74
2022/04/24 08:22:43;;;;;;;8.45;4.53;;;19.90;61.10;;;;;;5053987;28;20079;-74
2022/04/24 08:25:11;;;;;;;6.72;6.03;;;20.00;61.80;;;;;;5054188;28;20049;-72
2022/04/24 08:27:39;;;;;;;4.97;4.32;;;20.00;60.50;;;;;;5053410;28;20513;-73
2022/04/24 08:30:07;;;;;;;7.72;4.15;;;20.20;59.30;;;;;;5053943;28;20052;-73
2022/04/24 08:32:36;;;;;;;5.10;4.32;;;20.20;58.60;;;;;;5053516;28;20052;-72
2022/04/24 08:35:04;;;;;;;6.00;4.88;;;20.00;59.20;;;;;;5053276;28;20095;-73
2022/04/24 08:37:30;;;;;;;10.63;4.72;;;19.90;59.50;;;;;;5053439;28;20506;-73
2022/04/24 08:39:57;;;;;;;6.82;5.07;;;20.00;60.00;;;;;;5053719;28;20053;-73
2022/04/24 08:42:23;;;;;;;5.82;4.60;;;20.10;59.20;;;;;;5053671;28;20045;-73
2022/04/24 08:44:51;;;;;;;5.88;4.75;;;20.50;59.30;;;;;;5053928;28;20106;-74
2022/04/24 08:47:18;;;;;;;5.80;4.80;;;20.50;58.00;;;;;;5053962;28;20045;-74
2022/04/24 08:49:47;;;;;;;7.88;5.50;;;20.80;58.00;;;;;;5053869;28;20106;-73
2022/04/24 08:52:15;;;;;;;6.80;4.60;;;20.30;57.70;;;;;;5053315;28;20486;-73
2022/04/24 08:54:42;;;;;;;6.15;4.80;;;20.80;59.40;;;;;;5053267;28;20068;-73
2022/04/24 08:57:09;;;;;;;7.10;4.90;;;20.90;58.80;;;;;;5053478;28;20118;-73
2022/04/24 08:59:37;;;;;;;6.70;5.57;;;20.90;58.60;;;;;;5053587;28;20049;-74
2022/04/24 09:02:04;;;;;;;7.38;5.55;;;21.40;58.60;;;;;;5053854;28;20053;-73
2022/04/24 09:04:33;;;;;;;7.68;5.75;;;21.70;58.00;;;;;;5053287;28;20553;-74
2022/04/24 09:07:02;;;;;;;6.40;5.60;;;21.60;57.30;;;;;;5053073;28;20449;-74
2022/04/24 09:09:32;;;;;;;7.20;5.55;;;21.90;57.60;;;;;;5053058;28;20118;-73
2022/04/24 09:12:09;;;;;;;7.55;5.95;;;22.30;57.40;;;;;;5053237;28;20084;-73
2022/04/24 09:14:36;;;;;;;8.77;5.75;;;22.50;56.80;;;;;;5053359;28;20303;-73
2022/04/24 09:17:05;;;;;;;6.40;5.28;;;22.80;56.40;;;;;;5053372;28;20045;-73
2022/04/24 09:19:32;;;;;;;6.72;4.65;;;23.20;55.40;;;;;;5053311;28;20045;-73
2022/04/24 09:22:06;;;;;;;7.93;4.47;;;23.00;54.60;;;;;;5053562;28;20458;-73
2022/04/24 09:24:42;;;;;;;6.32;5.72;;;23.30;55.00;;;;;;5053091;28;20128;-72
2022/04/24 09:27:09;;;;;;;6.18;4.80;;;23.70;53.90;;;;;;5053107;28;20068;-73
